createdAt,value
2019-04-11T00:01:48.641Z,90.40
2019-04-11T00:04:16.418Z,90.20
2019-04-11T00:06:45.676Z,90.20
2019-04-11T00:09:17.064Z,90.50
2019-04-11T00:11:46.252Z,90.60
2019-04-11T00:14:15.928Z,90.50
2019-04-11T00:16:45.616Z,90.40
2019-04-11T00:19:15.579Z,90.40
2019-04-11T00:21:44.902Z,90.70
2019-04-11T00:24:14.462Z,90.70
2019-04-11T00:26:44.423Z,91.10
2019-04-11T00:29:14.363Z,90.70
2019-04-11T00:31:43.652Z,90.70
2019-04-11T00:34:13.046Z,90.70
2019-04-11T00:36:42.360Z,90.80
2019-04-11T00:39:13.257Z,90.90
2019-04-11T00:41:42.522Z,91.40
2019-04-11T00:44:11.718Z,91.40
2019-04-11T00:46:40.863Z,91.20
2019-04-11T00:49:10.301Z,91.10
2019-04-11T00:51:40.214Z,91.20
2019-04-11T00:54:10.785Z,91.40
2019-04-11T00:56:40.279Z,91.40
2019-04-11T00:59:09.850Z,91.50
2019-04-11T01:01:39.147Z,91.50
2019-04-11T01:04:09.583Z,91.40
2019-04-11T01:06:38.935Z,91.40
2019-04-11T01:09:09.501Z,91.60
2019-04-11T01:11:40.345Z,91.30
2019-04-11T01:14:09.881Z,91.50
2019-04-11T01:16:48.472Z,91.70
2019-04-11T01:19:18.444Z,91.80
2019-04-11T01:21:48.774Z,91.70
2019-04-11T01:24:18.042Z,91.70
2019-04-11T01:26:47.602Z,91.60
2019-04-11T01:29:17.571Z,91.70
2019-04-11T01:31:50.307Z,92.00
2019-04-11T01:34:20.293Z,91.80
2019-04-11T01:36:49.571Z,91.90
2019-04-11T01:39:31.106Z,91.90
2019-04-11T01:42:00.719Z,91.90
2019-04-11T01:44:30.446Z,92.20
2019-04-11T01:46:59.780Z,92.30
2019-04-11T01:49:28.987Z,92.70
2019-04-11T01:51:58.266Z,92.60
2019-04-11T01:54:28.074Z,92.70
2019-04-11T01:56:58.032Z,92.80
2019-04-11T01:59:27.347Z,92.70
2019-04-11T02:02:19.149Z,92.80
2019-04-11T02:04:54.382Z,92.60
2019-04-11T02:07:24.665Z,92.80
2019-04-11T02:09:54.736Z,92.90
2019-04-11T02:12:24.035Z,92.90
2019-04-11T02:14:53.174Z,92.90
2019-04-11T02:17:22.438Z,93.50
2019-04-11T02:19:52.338Z,93.40
2019-04-11T02:22:34.887Z,93.50
2019-04-11T02:25:26.515Z,93.70
2019-04-11T02:27:58.049Z,93.80
2019-04-11T02:30:27.897Z,93.70
2019-04-11T02:32:58.388Z,93.60
2019-04-11T02:35:28.904Z,93.70
2019-04-11T02:37:59.241Z,94.10
2019-04-11T02:40:30.160Z,93.90
2019-04-11T02:43:00.916Z,93.90
2019-04-11T02:45:42.677Z,94.60
2019-04-11T02:48:01.697Z,94.00
2019-04-11T02:50:32.155Z,94.00
2019-04-11T02:53:02.911Z,94.50
2019-04-11T02:55:33.507Z,94.50
2019-04-11T02:58:05.608Z,94.50
2019-04-11T03:00:35.972Z,94.70
2019-04-11T03:03:06.201Z,94.60
2019-04-11T03:05:37.555Z,94.60
2019-04-11T03:08:11.544Z,94.80
2019-04-11T03:10:40.742Z,95.10
2019-04-11T03:13:10.548Z,94.70
2019-04-11T03:15:57.462Z,94.90
2019-04-11T03:18:14.530Z,94.80
2019-04-11T03:20:48.184Z,94.90
2019-04-11T03:23:16.434Z,95.10
2019-04-11T03:25:44.945Z,94.80
2019-04-11T03:28:19.246Z,95.50
2019-04-11T03:31:06.874Z,95.60
2019-04-11T03:34:05.989Z,95.50
2019-04-11T03:38:44.294Z,95.60
2019-04-11T03:41:05.099Z,95.60
2019-04-11T03:43:32.902Z,96.10
2019-04-11T03:46:12.005Z,95.70
2019-04-11T03:48:38.175Z,95.90
2019-04-11T03:50:56.730Z,96.00
2019-04-11T03:53:29.151Z,96.00
2019-04-11T03:55:56.233Z,96.40
2019-04-11T03:58:26.045Z,96.70
2019-04-11T04:00:59.422Z,96.30
2019-04-11T04:03:26.802Z,96.80
2019-04-11T04:05:59.383Z,96.30
2019-04-11T04:08:29.694Z,96.40
2019-04-11T04:11:22.182Z,96.30
2019-04-11T04:14:02.145Z,96.20
2019-04-11T04:16:52.781Z,96.60
2019-04-11T04:19:40.139Z,96.50
2019-04-11T04:22:15.971Z,96.80
2019-04-11T04:24:47.699Z,96.90
2019-04-11T04:27:19.826Z,96.70
2019-04-11T04:29:53.229Z,96.90
2019-04-11T04:32:20.775Z,96.90
2019-04-11T04:34:53.144Z,97.10
2019-04-11T04:37:24.796Z,97.40
2019-04-11T04:40:13.298Z,97.20
2019-04-11T04:42:31.619Z,97.50
2019-04-11T04:44:56.050Z,97.40
2019-04-11T04:47:38.535Z,97.30
2019-04-11T04:49:57.083Z,97.30
2019-04-11T04:52:28.063Z,97.00
2019-04-11T04:54:59.354Z,96.70
2019-04-11T04:57:29.729Z,97.30
2019-04-11T05:00:00.131Z,97.00
2019-04-11T05:02:32.529Z,97.40
2019-04-11T05:05:03.773Z,97.40
2019-04-11T05:07:37.911Z,97.50
2019-04-11T05:10:06.442Z,97.50
2019-04-11T05:12:34.580Z,97.90
2019-04-11T05:15:04.426Z,97.90
2019-04-11T05:17:34.554Z,97.50
2019-04-11T05:20:05.080Z,97.00
2019-04-11T05:22:35.227Z,96.90
2019-04-11T05:25:05.470Z,96.70
2019-04-11T05:27:35.798Z,96.10
2019-04-11T05:30:05.523Z,96.30
2019-04-11T05:32:35.415Z,95.60
2019-04-11T05:35:05.356Z,95.10
2019-04-11T05:37:36.339Z,95.10
2019-04-11T05:40:09.311Z,95.10
2019-04-11T05:42:39.568Z,95.20
2019-04-11T05:45:16.946Z,95.20
2019-04-11T05:47:40.282Z,95.40
2019-04-11T05:50:48.011Z,95.20
2019-04-11T05:53:15.808Z,95.10
2019-04-11T05:55:47.504Z,95.10
2019-04-11T05:58:17.682Z,95.10
2019-04-11T06:01:01.327Z,94.90
2019-04-11T06:03:30.672Z,93.80
2019-04-11T06:06:18.372Z,93.80
2019-04-11T06:08:48.244Z,93.30
2019-04-11T06:11:39.615Z,92.00
2019-04-11T06:14:37.569Z,92.00
2019-04-11T06:17:09.984Z,91.50
2019-04-11T06:19:50.419Z,90.60
2019-04-11T06:22:19.907Z,89.10
2019-04-11T06:25:11.083Z,87.00
2019-04-11T06:27:59.747Z,85.00
2019-04-11T06:31:07.532Z,80.50
2019-04-11T06:33:40.709Z,79.30
2019-04-11T06:36:30.105Z,73.40
2019-04-11T06:39:21.267Z,76.10
2019-04-11T06:42:17.047Z,74.50
2019-04-11T06:45:01.972Z,73.30
2019-04-11T06:47:43.089Z,69.00
2019-04-11T06:50:27.028Z,69.00
2019-04-11T06:52:56.721Z,65.80
2019-04-11T06:55:44.776Z,63.40
2019-04-11T06:58:19.293Z,60.80
2019-04-11T07:00:53.674Z,60.00
2019-04-11T07:03:30.072Z,60.10
2019-04-11T07:05:59.432Z,58.60
2019-04-11T07:08:34.186Z,57.30
2019-04-11T07:11:07.213Z,58.20
2019-04-11T07:13:51.935Z,56.30
2019-04-11T07:16:21.930Z,58.10
2019-04-11T07:19:13.452Z,57.20
2019-04-11T07:21:44.051Z,56.90
2019-04-11T07:24:28.169Z,54.90
2019-04-11T07:27:05.690Z,55.50
2019-04-11T07:29:54.307Z,53.80
2019-04-11T07:32:26.099Z,53.90
2019-04-11T07:35:13.255Z,52.10
2019-04-11T07:37:47.368Z,52.50
2019-04-11T07:40:43.042Z,53.60
2019-04-11T07:43:31.277Z,52.10
2019-04-11T07:46:27.228Z,52.30
2019-04-11T07:49:05.943Z,52.60
2019-04-11T07:51:54.388Z,53.10
2019-04-11T07:54:25.933Z,51.80
2019-04-11T07:57:08.983Z,51.90
2019-04-11T07:59:55.861Z,51.00
2019-04-11T08:02:43.382Z,50.50
2019-04-11T08:05:35.168Z,52.80
2019-04-11T08:08:18.940Z,53.80
2019-04-11T08:10:57.920Z,53.30
2019-04-11T08:13:32.025Z,54.60
2019-04-11T08:16:20.320Z,53.00
2019-04-11T08:19:22.672Z,53.80
2019-04-11T08:22:27.243Z,53.90
2019-04-11T08:25:09.238Z,54.40
2019-04-11T08:27:54.071Z,54.00
2019-04-11T08:30:13.267Z,54.30
2019-04-11T08:33:02.380Z,52.20
2019-04-11T08:35:53.094Z,52.80
2019-04-11T08:38:32.543Z,51.90
2019-04-11T08:41:20.718Z,52.70
2019-04-11T08:43:50.962Z,51.90
2019-04-11T08:46:28.856Z,52.60
2019-04-11T08:49:01.542Z,53.40
2019-04-11T08:51:31.572Z,51.50
2019-04-11T08:54:23.729Z,52.20
2019-04-11T08:56:53.621Z,51.60
2019-04-11T08:59:57.682Z,51.50
2019-04-11T09:02:31.398Z,52.00
2019-04-11T09:05:38.764Z,51.40
2019-04-11T09:08:27.155Z,52.30
2019-04-11T09:11:15.331Z,51.70
2019-04-11T09:14:02.013Z,51.00
2019-04-11T09:16:45.814Z,50.40
2019-04-11T09:19:25.178Z,50.50
2019-04-11T09:22:13.101Z,50.50
2019-04-11T09:25:05.191Z,50.80
2019-04-11T09:27:55.628Z,51.00
2019-04-11T09:30:36.922Z,51.10
2019-04-11T09:33:38.521Z,50.90
2019-04-11T09:36:29.011Z,50.40
2019-04-11T09:38:59.163Z,49.70
2019-04-11T09:41:47.646Z,49.40
2019-04-11T09:44:17.320Z,49.70
2019-04-11T09:47:08.562Z,51.00
2019-04-11T09:49:43.691Z,50.20
2019-04-11T09:52:18.991Z,50.20
2019-04-11T09:55:17.099Z,49.90
2019-04-11T09:57:50.391Z,49.20
2019-04-11T10:00:47.846Z,49.40
2019-04-11T10:03:23.532Z,50.30
2019-04-11T10:06:23.859Z,50.00
2019-04-11T10:08:57.517Z,49.20
2019-04-11T10:11:55.185Z,50.30
2019-04-11T10:14:26.645Z,49.80
2019-04-11T10:17:14.766Z,49.20
2019-04-11T10:19:52.254Z,49.90
2019-04-11T10:22:49.331Z,49.50
2019-04-11T10:25:23.151Z,48.90
2019-04-11T10:28:11.487Z,50.20
2019-04-11T10:30:58.259Z,47.50
2019-04-11T10:33:59.534Z,47.60
2019-04-11T10:36:31.532Z,47.20
2019-04-11T10:39:19.748Z,47.10
2019-04-11T10:41:52.119Z,47.00
2019-04-11T10:44:26.722Z,46.90
2019-04-11T10:47:01.881Z,47.10
2019-04-11T10:49:49.079Z,47.40
2019-04-11T10:52:34.207Z,47.20
2019-04-11T10:55:17.484Z,47.30
2019-04-11T10:57:49.970Z,47.80
2019-04-11T11:00:27.344Z,46.70
2019-04-11T11:03:18.574Z,46.80
2019-04-11T11:05:51.389Z,47.20
2019-04-11T11:08:31.910Z,46.50
2019-04-11T11:11:06.066Z,47.00
2019-04-11T11:14:12.579Z,46.20
2019-04-11T11:17:04.522Z,46.90
2019-04-11T11:20:03.836Z,46.40
2019-04-11T11:22:34.204Z,47.30
2019-04-11T11:25:22.456Z,47.10
2019-04-11T11:27:52.365Z,49.10
2019-04-11T11:30:40.733Z,47.30
2019-04-11T11:33:10.084Z,46.80
2019-04-11T11:36:01.078Z,47.40
2019-04-11T11:38:30.582Z,47.80
2019-04-11T11:41:18.405Z,47.10
2019-04-11T11:43:49.731Z,46.90
2019-04-11T11:46:38.281Z,47.00
2019-04-11T11:49:12.419Z,46.60
2019-04-11T11:52:01.941Z,47.50
2019-04-11T11:54:35.558Z,47.50
2019-04-11T11:57:09.083Z,49.10
2019-04-11T11:59:44.914Z,47.60
2019-04-11T12:02:37.279Z,47.10
2019-04-11T12:05:18.532Z,46.60
2019-04-11T12:08:10.784Z,47.10
2019-04-11T12:10:43.955Z,47.20
2019-04-11T12:13:45.491Z,47.20
2019-04-11T12:16:42.244Z,47.50
2019-04-11T12:19:47.659Z,47.70
2019-04-11T12:22:08.875Z,47.80
2019-04-11T12:24:46.268Z,47.30
2019-04-11T12:27:33.503Z,47.10
2019-04-11T12:30:35.617Z,47.00
2019-04-11T12:33:23.494Z,47.20
2019-04-11T12:35:59.017Z,47.10
2019-04-11T12:38:36.958Z,46.00
2019-04-11T12:41:37.093Z,46.90
2019-04-11T12:44:23.824Z,46.00
2019-04-11T12:47:10.990Z,46.40
2019-04-11T12:49:59.186Z,46.60
2019-04-11T12:52:50.356Z,46.20
2019-04-11T12:55:26.142Z,46.20
2019-04-11T12:58:20.332Z,47.00
2019-04-11T13:01:07.659Z,46.30
2019-04-11T13:04:05.262Z,46.10
2019-04-11T13:06:44.006Z,47.40
2019-04-11T13:09:22.355Z,48.10
2019-04-11T13:11:52.234Z,48.50
2019-04-11T13:14:40.427Z,46.60
2019-04-11T13:17:11.947Z,46.60
2019-04-11T13:20:15.258Z,47.20
2019-04-11T13:22:44.476Z,47.20
2019-04-11T13:25:39.216Z,46.30
2019-04-11T13:28:08.505Z,46.00
2019-04-11T13:30:57.615Z,46.80
2019-04-11T13:33:27.708Z,46.70
2019-04-11T13:36:16.082Z,47.10
2019-04-11T13:38:47.013Z,47.30
2019-04-11T13:41:40.899Z,47.00
2019-04-11T13:44:16.091Z,45.40
2019-04-11T13:47:02.939Z,45.70
2019-04-11T13:49:53.014Z,46.00
2019-04-11T13:52:44.384Z,46.70
2019-04-11T13:55:33.467Z,45.60
2019-04-11T13:58:20.475Z,45.10
2019-04-11T14:00:57.180Z,45.00
2019-04-11T14:03:48.403Z,45.30
2019-04-11T14:06:38.281Z,45.90
2019-04-11T14:09:30.749Z,46.80
2019-04-11T14:12:05.669Z,46.70
2019-04-11T14:14:36.970Z,47.10
2019-04-11T14:17:21.943Z,46.20
2019-04-11T14:20:29.938Z,45.50
2019-04-11T14:23:24.505Z,46.20
2019-04-11T14:26:11.854Z,46.20
2019-04-11T14:29:03.083Z,45.50
2019-04-11T14:32:06.397Z,46.30
2019-04-11T14:34:53.277Z,46.30
2019-04-11T14:37:33.152Z,46.30
2019-04-11T14:40:01.704Z,45.30
2019-04-11T14:42:58.712Z,46.40
2019-04-11T14:45:58.922Z,46.00
2019-04-11T14:48:40.065Z,45.90
2019-04-11T14:51:16.717Z,45.20
2019-04-11T14:54:20.326Z,45.50
2019-04-11T14:57:03.503Z,45.90
2019-04-11T14:59:40.735Z,45.70
2019-04-11T15:02:14.671Z,46.20
2019-04-11T15:05:01.252Z,46.40
2019-04-11T15:07:31.738Z,47.00
2019-04-11T15:10:19.715Z,45.50
2019-04-11T15:12:48.891Z,45.30
2019-04-11T15:15:31.622Z,44.30
2019-04-11T15:18:02.997Z,44.60
2019-04-11T15:20:55.947Z,45.00
2019-04-11T15:23:27.933Z,44.90
2019-04-11T15:26:22.185Z,45.00
2019-04-11T15:29:00.920Z,45.70
2019-04-11T15:31:39.425Z,44.50
2019-04-11T15:34:15.899Z,44.00
2019-04-11T15:36:53.054Z,43.80
2019-04-11T15:39:44.641Z,44.60
2019-04-11T15:42:16.024Z,44.70
2019-04-11T15:45:15.763Z,45.20
2019-04-11T15:47:55.610Z,45.10
2019-04-11T15:50:42.759Z,45.30
2019-04-11T15:53:15.931Z,44.50
2019-04-11T15:56:03.062Z,45.40
2019-04-11T15:58:42.424Z,45.90
2019-04-11T16:01:37.595Z,46.30
2019-04-11T16:04:19.263Z,45.70
2019-04-11T16:07:10.522Z,45.50
2019-04-11T16:09:39.920Z,46.20
2019-04-11T16:12:32.606Z,45.70
2019-04-11T16:15:13.473Z,45.80
2019-04-11T16:18:04.870Z,46.10
2019-04-11T16:20:34.045Z,46.70
2019-04-11T16:23:21.132Z,47.00
2019-04-11T16:25:54.756Z,47.10
2019-04-11T16:28:46.126Z,47.80
2019-04-11T16:31:15.298Z,47.80
2019-04-11T16:34:21.684Z,47.60
2019-04-11T16:36:53.544Z,47.40
2019-04-11T16:39:55.113Z,47.70
2019-04-11T16:42:45.493Z,48.00
2019-04-11T16:45:39.982Z,48.00
2019-04-11T16:48:09.195Z,48.20
2019-04-11T16:50:38.382Z,48.40
2019-04-11T16:53:10.439Z,48.60
2019-04-11T16:55:41.799Z,49.10
2019-04-11T16:58:09.356Z,49.80
2019-04-11T17:00:38.646Z,49.90
2019-04-11T17:03:07.864Z,50.10
2019-04-11T17:05:39.359Z,50.20
2019-04-11T17:08:27.614Z,50.40
2019-04-11T17:11:05.865Z,50.50
2019-04-11T17:13:35.091Z,50.90
2019-04-11T17:16:05.999Z,50.80
2019-04-11T17:18:35.208Z,51.00
2019-04-11T17:21:07.838Z,51.10
2019-04-11T17:23:35.318Z,51.30
2019-04-11T17:26:06.075Z,51.20
2019-04-11T17:28:35.878Z,51.00
2019-04-11T17:31:05.322Z,51.30
2019-04-11T17:33:34.465Z,51.50
2019-04-11T17:36:03.843Z,51.60
2019-04-11T17:38:36.881Z,51.50
2019-04-11T17:41:03.982Z,51.60
2019-04-11T17:43:33.263Z,51.60
2019-04-11T17:46:02.430Z,51.70
2019-04-11T17:48:31.670Z,52.50
2019-04-11T17:51:04.825Z,52.00
2019-04-11T17:53:31.821Z,52.80
2019-04-11T17:56:01.078Z,52.30
2019-04-11T17:58:30.323Z,52.40
2019-04-11T18:01:05.201Z,52.50
2019-04-11T18:03:31.810Z,52.50
2019-04-11T18:06:01.029Z,52.50
2019-04-11T18:08:30.199Z,52.70
2019-04-11T18:10:59.410Z,52.70
2019-04-11T18:13:31.525Z,52.50
2019-04-11T18:16:01.158Z,52.90
2019-04-11T18:18:34.697Z,52.80
2019-04-11T18:21:01.430Z,53.40
2019-04-11T18:23:30.631Z,52.60
2019-04-11T18:25:59.870Z,53.00
2019-04-11T18:28:29.116Z,53.10
2019-04-11T18:30:58.367Z,52.90
2019-04-11T18:33:31.494Z,53.00
2019-04-11T18:36:01.772Z,53.00
2019-04-11T18:38:31.915Z,52.90
2019-04-11T18:41:00.834Z,52.90
2019-04-11T18:43:30.094Z,53.00
2019-04-11T18:45:59.313Z,53.20
2019-04-11T18:48:28.514Z,53.50
2019-04-11T18:50:57.703Z,53.50
2019-04-11T18:53:26.959Z,53.50
2019-04-11T18:55:56.123Z,53.50
2019-04-11T18:58:25.386Z,53.50
2019-04-11T19:00:54.650Z,53.80
2019-04-11T19:03:35.480Z,54.10
2019-04-11T19:05:54.881Z,54.10
2019-04-11T19:08:24.169Z,54.00
2019-04-11T19:10:53.430Z,53.90
2019-04-11T19:13:22.607Z,54.00
2019-04-11T19:15:51.754Z,54.20
2019-04-11T19:18:21.072Z,54.40
2019-04-11T19:20:50.861Z,54.50
2019-04-11T19:23:20.452Z,54.50
2019-04-11T19:25:49.689Z,54.90
2019-04-11T19:28:18.971Z,54.90
2019-04-11T19:30:48.211Z,55.00
2019-04-11T19:33:19.197Z,55.50
2019-04-11T19:35:48.289Z,55.30
2019-04-11T19:38:28.905Z,55.70
2019-04-11T19:40:58.077Z,55.60
2019-04-11T19:43:27.204Z,55.70
2019-04-11T19:45:58.566Z,55.80
2019-04-11T19:48:27.334Z,56.20
2019-04-11T19:50:58.657Z,56.30
2019-04-11T19:53:27.424Z,56.40
2019-04-11T19:56:02.967Z,57.80
2019-04-11T19:58:33.084Z,58.00
2019-04-11T20:01:02.347Z,56.90
2019-04-11T20:03:31.849Z,57.10
2019-04-11T20:06:01.167Z,57.30
2019-04-11T20:08:30.323Z,57.40
2019-04-11T20:11:01.300Z,57.70
2019-04-11T20:13:32.329Z,57.50
2019-04-11T20:16:01.436Z,58.60
2019-04-11T20:18:30.655Z,58.70
2019-04-11T20:20:59.870Z,58.30
2019-04-11T20:23:29.132Z,58.70
2019-04-11T20:25:58.367Z,58.60
2019-04-11T20:28:27.519Z,58.60
2019-04-11T20:30:56.806Z,59.30
2019-04-11T20:33:27.364Z,59.80
2019-04-11T20:35:57.023Z,60.00
2019-04-11T20:38:26.235Z,60.20
2019-04-11T20:40:55.443Z,60.40
2019-04-11T20:43:25.680Z,61.00
2019-04-11T20:45:57.958Z,60.30
2019-04-11T20:48:26.066Z,60.30
2019-04-11T20:50:55.307Z,60.70
2019-04-11T20:53:24.529Z,62.40
2019-04-11T20:55:53.784Z,61.40
2019-04-11T20:58:27.618Z,62.50
2019-04-11T21:00:55.965Z,63.30
2019-04-11T21:03:24.815Z,63.70
2019-04-11T21:05:53.979Z,63.60
2019-04-11T21:08:23.235Z,63.70
2019-04-11T21:10:52.411Z,64.50
2019-04-11T21:13:21.652Z,64.20
2019-04-11T21:15:50.864Z,64.80
2019-04-11T21:18:20.028Z,64.70
2019-04-11T21:20:49.236Z,65.10
2019-04-11T21:23:24.447Z,64.60
2019-04-11T21:25:49.380Z,65.30
2019-04-11T21:28:18.579Z,65.50
2019-04-11T21:30:47.722Z,66.30
2019-04-11T21:33:16.960Z,66.10
2019-04-11T21:35:46.103Z,66.30
2019-04-11T21:38:15.263Z,67.00
2019-04-11T21:40:44.491Z,67.60
2019-04-11T21:43:13.733Z,66.60
2019-04-11T21:45:42.880Z,66.90
2019-04-11T21:48:12.055Z,67.70
2019-04-11T21:50:41.327Z,67.40
2019-04-11T21:53:14.020Z,67.20
2019-04-11T21:55:41.460Z,66.30
2019-04-11T21:58:10.712Z,66.20
2019-04-11T22:00:43.631Z,67.10
2019-04-11T22:03:13.024Z,68.00
2019-04-11T22:05:42.235Z,67.40
2019-04-11T22:08:11.471Z,67.40
2019-04-11T22:10:41.024Z,67.80
2019-04-11T22:13:10.820Z,68.30
2019-04-11T22:15:42.442Z,68.80
2019-04-11T22:18:15.675Z,69.80
2019-04-11T22:20:41.962Z,67.00
2019-04-11T22:23:11.187Z,66.80
2019-04-11T22:25:40.323Z,66.00
2019-04-11T22:28:09.718Z,65.80
2019-04-11T22:30:39.094Z,65.10
2019-04-11T22:33:30.055Z,64.70
2019-04-11T22:35:59.858Z,64.40
2019-04-11T22:38:30.959Z,65.40
2019-04-11T22:41:02.069Z,66.20
2019-04-11T22:43:31.122Z,64.90
2019-04-11T22:46:00.331Z,64.90
2019-04-11T22:48:29.499Z,65.70
2019-04-11T22:50:58.638Z,65.30
2019-04-11T22:53:27.875Z,64.90
2019-04-11T22:55:57.021Z,65.60
2019-04-11T22:58:26.271Z,65.20
2019-04-11T23:00:55.491Z,64.80
2019-04-11T23:03:28.901Z,64.50
2019-04-11T23:05:58.090Z,65.00
2019-04-11T23:08:27.253Z,64.60
2019-04-11T23:10:56.539Z,64.50
2019-04-11T23:13:25.779Z,65.20
2019-04-11T23:15:55.010Z,64.30
2019-04-11T23:18:24.179Z,64.20
2019-04-11T23:20:53.323Z,64.30
2019-04-11T23:23:22.483Z,63.80
2019-04-11T23:25:51.639Z,63.90
2019-04-11T23:28:21.107Z,63.60
2019-04-11T23:30:50.551Z,62.70
2019-04-11T23:33:21.417Z,61.90
2019-04-11T23:35:51.223Z,61.20
2019-04-11T23:38:23.604Z,61.00
2019-04-11T23:40:51.912Z,60.50
2019-04-11T23:43:21.234Z,60.60
2019-04-11T23:45:51.163Z,60.50
2019-04-11T23:48:23.722Z,59.80
2019-04-11T23:50:54.792Z,59.50
2019-04-11T23:53:22.837Z,59.70
2019-04-11T23:55:52.067Z,59.50
2019-04-11T23:58:21.274Z,59.20
